Terminal Aerodrome Forecast
Issued by NWS

Home | Current Version | Previous Version | Text Only | Print | Product List | Glossary Off
Versions: 1 2 3 4 5 6 7 8 9 10 11 12 13 14 15 16 17 18 19 20 21 22 23

000
FTUS43 KBIS 041211 AAA
TAFMOT
TAF AMD
KMOT 041211Z 0412/0512 31012G17KT 6SM BR OVC007
      TEMPO 0412/0415 2SM -TSRA OVC007CB
     FM041500 01011KT 5SM -SHRA BR BKN020 OVC035
     FM042100 01010KT P6SM SCT040
     FM050600 02009KT P6SM SCT010 BKN025=

USA.gov is the U.S. government's official web portal to all federal, state and local government web resources and services.